sensor_id;sensor_type;location;lat;lon;timestamp;P1;durP1;ratioP1;P2;durP2;ratioP2
71914;SDS011;60387;49.994;14.660;2022-10-16T00:01:57;9.00;;;2.70;;
71914;SDS011;60387;49.994;14.660;2022-10-16T00:04:30;7.27;;;2.60;;
71914;SDS011;60387;49.994;14.660;2022-10-16T00:07:03;8.33;;;2.97;;
71914;SDS011;60387;49.994;14.660;2022-10-16T00:09:37;11.43;;;3.03;;
71914;SDS011;60387;49.994;14.660;2022-10-16T00:12:10;7.37;;;2.70;;
71914;SDS011;60387;49.994;14.660;2022-10-16T00:14:43;9.60;;;2.77;;
71914;SDS011;60387;49.994;14.660;2022-10-16T00:17:16;7.80;;;2.70;;
71914;SDS011;60387;49.994;14.660;2022-10-16T00:19:50;8.30;;;2.80;;
71914;SDS011;60387;49.994;14.660;2022-10-16T00:22:23;8.77;;;2.50;;
71914;SDS011;60387;49.994;14.660;2022-10-16T00:24:56;9.23;;;2.83;;
71914;SDS011;60387;49.994;14.660;2022-10-16T00:27:30;7.77;;;2.40;;
71914;SDS011;60387;49.994;14.660;2022-10-16T00:30:03;5.83;;;1.83;;
71914;SDS011;60387;49.994;14.660;2022-10-16T00:32:37;6.45;;;2.17;;
71914;SDS011;60387;49.994;14.660;2022-10-16T00:35:10;6.65;;;2.05;;
71914;SDS011;60387;49.994;14.660;2022-10-16T00:37:43;6.77;;;2.17;;
71914;SDS011;60387;49.994;14.660;2022-10-16T00:40:17;5.73;;;2.10;;
71914;SDS011;60387;49.994;14.660;2022-10-16T00:42:50;7.63;;;1.80;;
71914;SDS011;60387;49.994;14.660;2022-10-16T00:45:26;4.77;;;1.40;;
71914;SDS011;60387;49.994;14.660;2022-10-16T00:48:00;6.32;;;1.75;;
71914;SDS011;60387;49.994;14.660;2022-10-16T00:50:33;4.83;;;1.70;;
71914;SDS011;60387;49.994;14.660;2022-10-16T00:53:07;5.95;;;1.70;;
71914;SDS011;60387;49.994;14.660;2022-10-16T00:55:40;6.30;;;1.63;;
71914;SDS011;60387;49.994;14.660;2022-10-16T00:58:14;6.77;;;2.00;;
71914;SDS011;60387;49.994;14.660;2022-10-16T01:00:47;5.27;;;1.80;;
71914;SDS011;60387;49.994;14.660;2022-10-16T01:03:26;5.87;;;1.90;;
71914;SDS011;60387;49.994;14.660;2022-10-16T01:15:07;6.03;;;1.67;;
71914;SDS011;60387;49.994;14.660;2022-10-16T01:18:44;8.47;;;1.87;;
71914;SDS011;60387;49.994;14.660;2022-10-16T01:21:11;5.45;;;1.75;;
71914;SDS011;60387;49.994;14.660;2022-10-16T01:24:00;4.75;;;1.83;;
71914;SDS011;60387;49.994;14.660;2022-10-16T01:32:27;5.27;;;1.70;;
71914;SDS011;60387;49.994;14.660;2022-10-16T01:37:47;5.50;;;1.60;;
71914;SDS011;60387;49.994;14.660;2022-10-16T01:40:25;5.85;;;1.60;;
71914;SDS011;60387;49.994;14.660;2022-10-16T01:43:02;4.38;;;1.58;;
71914;SDS011;60387;49.994;14.660;2022-10-16T01:45:44;4.40;;;1.40;;
71914;SDS011;60387;49.994;14.660;2022-10-16T01:48:18;5.55;;;1.63;;
71914;SDS011;60387;49.994;14.660;2022-10-16T01:50:56;5.63;;;1.38;;
71914;SDS011;60387;49.994;14.660;2022-10-16T01:53:34;5.13;;;1.33;;
71914;SDS011;60387;49.994;14.660;2022-10-16T01:56:09;4.93;;;1.60;;
71914;SDS011;60387;49.994;14.660;2022-10-16T01:58:46;4.77;;;1.37;;
71914;SDS011;60387;49.994;14.660;2022-10-16T02:01:24;5.28;;;1.50;;
71914;SDS011;60387;49.994;14.660;2022-10-16T02:04:02;6.75;;;1.50;;
71914;SDS011;60387;49.994;14.660;2022-10-16T02:06:42;4.82;;;1.55;;
71914;SDS011;60387;49.994;14.660;2022-10-16T02:09:15;5.03;;;1.43;;
71914;SDS011;60387;49.994;14.660;2022-10-16T02:11:48;5.30;;;1.60;;
71914;SDS011;60387;49.994;14.660;2022-10-16T02:14:26;4.47;;;1.42;;
71914;SDS011;60387;49.994;14.660;2022-10-16T02:17:00;7.27;;;2.57;;
71914;SDS011;60387;49.994;14.660;2022-10-16T02:19:33;4.30;;;1.70;;
71914;SDS011;60387;49.994;14.660;2022-10-16T02:22:08;4.80;;;1.40;;
71914;SDS011;60387;49.994;14.660;2022-10-16T02:24:56;4.53;;;1.48;;
71914;SDS011;60387;49.994;14.660;2022-10-16T02:30:22;6.07;;;2.05;;
71914;SDS011;60387;49.994;14.660;2022-10-16T02:33:00;4.55;;;1.50;;
71914;SDS011;60387;49.994;14.660;2022-10-16T02:35:37;4.10;;;1.40;;
71914;SDS011;60387;49.994;14.660;2022-10-16T02:38:11;5.32;;;1.58;;
71914;SDS011;60387;49.994;14.660;2022-10-16T02:40:46;4.28;;;1.30;;
71914;SDS011;60387;49.994;14.660;2022-10-16T02:43:20;5.13;;;1.20;;
71914;SDS011;60387;49.994;14.660;2022-10-16T02:45:53;3.83;;;1.17;;
71914;SDS011;60387;49.994;14.660;2022-10-16T02:48:26;4.10;;;1.20;;
71914;SDS011;60387;49.994;14.660;2022-10-16T02:51:00;4.00;;;1.20;;
71914;SDS011;60387;49.994;14.660;2022-10-16T02:53:33;3.77;;;1.13;;
71914;SDS011;60387;49.994;14.660;2022-10-16T02:56:06;3.00;;;1.00;;
71914;SDS011;60387;49.994;14.660;2022-10-16T02:58:40;3.60;;;1.10;;
71914;SDS011;60387;49.994;14.660;2022-10-16T03:01:13;4.47;;;1.20;;
71914;SDS011;60387;49.994;14.660;2022-10-16T03:03:46;4.37;;;1.20;;
71914;SDS011;60387;49.994;14.660;2022-10-16T03:06:20;5.32;;;1.38;;
71914;SDS011;60387;49.994;14.660;2022-10-16T03:08:53;4.03;;;1.30;;
71914;SDS011;60387;49.994;14.660;2022-10-16T03:11:26;4.90;;;1.10;;
71914;SDS011;60387;49.994;14.660;2022-10-16T03:13:59;4.40;;;1.50;;
71914;SDS011;60387;49.994;14.660;2022-10-16T03:16:33;4.30;;;1.30;;
71914;SDS011;60387;49.994;14.660;2022-10-16T03:19:06;4.73;;;1.23;;
71914;SDS011;60387;49.994;14.660;2022-10-16T03:21:39;5.70;;;1.27;;
71914;SDS011;60387;49.994;14.660;2022-10-16T03:24:13;3.90;;;1.30;;
71914;SDS011;60387;49.994;14.660;2022-10-16T03:26:46;4.43;;;1.43;;
71914;SDS011;60387;49.994;14.660;2022-10-16T03:29:19;4.33;;;1.40;;
71914;SDS011;60387;49.994;14.660;2022-10-16T03:31:52;4.80;;;1.40;;
71914;SDS011;60387;49.994;14.660;2022-10-16T03:34:26;8.67;;;1.40;;
71914;SDS011;60387;49.994;14.660;2022-10-16T03:36:59;6.00;;;1.50;;
71914;SDS011;60387;49.994;14.660;2022-10-16T03:39:32;4.67;;;1.57;;
71914;SDS011;60387;49.994;14.660;2022-10-16T03:42:06;5.70;;;1.80;;
71914;SDS011;60387;49.994;14.660;2022-10-16T03:44:39;4.47;;;1.47;;
71914;SDS011;60387;49.994;14.660;2022-10-16T03:47:12;5.43;;;1.80;;
71914;SDS011;60387;49.994;14.660;2022-10-16T03:49:46;4.97;;;1.50;;
71914;SDS011;60387;49.994;14.660;2022-10-16T03:52:19;7.87;;;1.63;;
71914;SDS011;60387;49.994;14.660;2022-10-16T03:54:52;5.27;;;1.50;;
71914;SDS011;60387;49.994;14.660;2022-10-16T03:57:25;5.33;;;1.40;;
71914;SDS011;60387;49.994;14.660;2022-10-16T03:59:59;4.17;;;1.00;;
71914;SDS011;60387;49.994;14.660;2022-10-16T04:02:32;4.43;;;1.30;;
71914;SDS011;60387;49.994;14.660;2022-10-16T04:05:05;5.00;;;1.20;;
71914;SDS011;60387;49.994;14.660;2022-10-16T04:07:39;4.43;;;1.30;;
71914;SDS011;60387;49.994;14.660;2022-10-16T04:10:12;4.87;;;1.10;;
71914;SDS011;60387;49.994;14.660;2022-10-16T04:12:46;3.73;;;1.30;;
71914;SDS011;60387;49.994;14.660;2022-10-16T04:15:19;5.60;;;1.40;;
71914;SDS011;60387;49.994;14.660;2022-10-16T04:17:52;5.90;;;1.30;;
71914;SDS011;60387;49.994;14.660;2022-10-16T04:20:25;5.03;;;1.33;;
71914;SDS011;60387;49.994;14.660;2022-10-16T04:22:59;6.23;;;1.20;;
71914;SDS011;60387;49.994;14.660;2022-10-16T04:25:32;4.70;;;1.27;;
71914;SDS011;60387;49.994;14.660;2022-10-16T04:28:05;5.53;;;1.43;;
71914;SDS011;60387;49.994;14.660;2022-10-16T04:30:39;6.70;;;1.90;;
71914;SDS011;60387;49.994;14.660;2022-10-16T04:33:12;5.67;;;1.60;;
71914;SDS011;60387;49.994;14.660;2022-10-16T04:35:45;5.30;;;1.53;;
71914;SDS011;60387;49.994;14.660;2022-10-16T04:38:18;4.97;;;1.35;;
71914;SDS011;60387;49.994;14.660;2022-10-16T04:40:52;4.80;;;1.53;;
71914;SDS011;60387;49.994;14.660;2022-10-16T04:43:25;4.93;;;1.57;;
71914;SDS011;60387;49.994;14.660;2022-10-16T04:45:58;5.90;;;1.50;;
71914;SDS011;60387;49.994;14.660;2022-10-16T04:48:32;4.43;;;1.40;;
71914;SDS011;60387;49.994;14.660;2022-10-16T04:51:05;4.80;;;1.45;;
71914;SDS011;60387;49.994;14.660;2022-10-16T04:53:38;4.37;;;1.50;;
71914;SDS011;60387;49.994;14.660;2022-10-16T04:56:12;4.47;;;1.33;;
71914;SDS011;60387;49.994;14.660;2022-10-16T04:58:45;4.85;;;1.45;;
71914;SDS011;60387;49.994;14.660;2022-10-16T05:01:18;4.60;;;1.58;;
71914;SDS011;60387;49.994;14.660;2022-10-16T05:03:52;4.13;;;1.30;;
71914;SDS011;60387;49.994;14.660;2022-10-16T05:06:25;4.27;;;1.50;;
71914;SDS011;60387;49.994;14.660;2022-10-16T05:08:58;5.40;;;1.60;;
71914;SDS011;60387;49.994;14.660;2022-10-16T05:11:31;5.27;;;1.50;;
71914;SDS011;60387;49.994;14.660;2022-10-16T05:14:05;4.50;;;1.33;;
71914;SDS011;60387;49.994;14.660;2022-10-16T05:16:38;4.53;;;1.30;;
71914;SDS011;60387;49.994;14.660;2022-10-16T05:19:11;6.10;;;1.60;;
71914;SDS011;60387;49.994;14.660;2022-10-16T05:21:44;4.07;;;1.57;;
71914;SDS011;60387;49.994;14.660;2022-10-16T05:24:18;3.43;;;1.30;;
71914;SDS011;60387;49.994;14.660;2022-10-16T05:26:51;4.57;;;1.27;;
71914;SDS011;60387;49.994;14.660;2022-10-16T05:29:24;5.03;;;1.47;;
71914;SDS011;60387;49.994;14.660;2022-10-16T05:31:58;6.53;;;1.20;;
71914;SDS011;60387;49.994;14.660;2022-10-16T05:34:31;3.67;;;1.23;;
71914;SDS011;60387;49.994;14.660;2022-10-16T05:37:04;4.37;;;1.57;;
71914;SDS011;60387;49.994;14.660;2022-10-16T05:39:38;4.97;;;1.35;;
71914;SDS011;60387;49.994;14.660;2022-10-16T05:42:11;5.10;;;1.37;;
71914;SDS011;60387;49.994;14.660;2022-10-16T05:44:45;5.27;;;1.37;;
71914;SDS011;60387;49.994;14.660;2022-10-16T05:47:18;6.63;;;1.13;;
71914;SDS011;60387;49.994;14.660;2022-10-16T05:49:51;6.97;;;1.40;;
71914;SDS011;60387;49.994;14.660;2022-10-16T05:52:24;4.53;;;1.40;;
71914;SDS011;60387;49.994;14.660;2022-10-16T05:54:59;5.72;;;1.50;;
71914;SDS011;60387;49.994;14.660;2022-10-16T05:57:32;4.63;;;1.30;;
71914;SDS011;60387;49.994;14.660;2022-10-16T06:00:05;8.07;;;1.83;;
71914;SDS011;60387;49.994;14.660;2022-10-16T06:02:39;4.80;;;1.58;;
71914;SDS011;60387;49.994;14.660;2022-10-16T06:05:12;5.27;;;1.70;;
71914;SDS011;60387;49.994;14.660;2022-10-16T06:07:46;5.70;;;1.73;;
71914;SDS011;60387;49.994;14.660;2022-10-16T06:10:19;4.47;;;1.53;;
71914;SDS011;60387;49.994;14.660;2022-10-16T06:12:52;5.87;;;1.60;;
71914;SDS011;60387;49.994;14.660;2022-10-16T06:15:25;4.90;;;1.50;;
71914;SDS011;60387;49.994;14.660;2022-10-16T06:17:59;5.00;;;1.47;;
71914;SDS011;60387;49.994;14.660;2022-10-16T06:20:32;6.63;;;1.60;;
71914;SDS011;60387;49.994;14.660;2022-10-16T06:23:05;4.23;;;1.47;;
71914;SDS011;60387;49.994;14.660;2022-10-16T06:25:38;4.93;;;1.60;;
71914;SDS011;60387;49.994;14.660;2022-10-16T06:28:13;5.87;;;1.70;;
71914;SDS011;60387;49.994;14.660;2022-10-16T06:30:47;6.30;;;2.08;;
71914;SDS011;60387;49.994;14.660;2022-10-16T06:33:20;6.93;;;1.90;;
71914;SDS011;60387;49.994;14.660;2022-10-16T06:35:59;5.40;;;1.93;;
71914;SDS011;60387;49.994;14.660;2022-10-16T06:38:33;5.30;;;1.73;;
71914;SDS011;60387;49.994;14.660;2022-10-16T06:41:07;6.30;;;1.93;;
71914;SDS011;60387;49.994;14.660;2022-10-16T06:43:42;5.90;;;1.58;;
71914;SDS011;60387;49.994;14.660;2022-10-16T06:46:16;4.83;;;1.67;;
71914;SDS011;60387;49.994;14.660;2022-10-16T06:48:52;6.07;;;1.70;;
71914;SDS011;60387;49.994;14.660;2022-10-16T06:51:26;7.63;;;1.88;;
71914;SDS011;60387;49.994;14.660;2022-10-16T06:53:59;5.17;;;1.60;;
71914;SDS011;60387;49.994;14.660;2022-10-16T06:56:32;5.30;;;1.50;;
71914;SDS011;60387;49.994;14.660;2022-10-16T06:59:06;5.27;;;1.90;;
71914;SDS011;60387;49.994;14.660;2022-10-16T07:01:39;8.60;;;1.93;;
71914;SDS011;60387;49.994;14.660;2022-10-16T07:04:12;5.63;;;1.90;;
71914;SDS011;60387;49.994;14.660;2022-10-16T07:06:46;6.05;;;1.77;;
71914;SDS011;60387;49.994;14.660;2022-10-16T07:09:19;8.37;;;2.03;;
71914;SDS011;60387;49.994;14.660;2022-10-16T07:11:53;5.37;;;1.97;;
71914;SDS011;60387;49.994;14.660;2022-10-16T07:14:26;6.00;;;1.87;;
71914;SDS011;60387;49.994;14.660;2022-10-16T07:16:59;6.50;;;1.80;;
71914;SDS011;60387;49.994;14.660;2022-10-16T07:19:32;5.33;;;1.60;;
71914;SDS011;60387;49.994;14.660;2022-10-16T07:22:06;6.77;;;1.63;;
71914;SDS011;60387;49.994;14.660;2022-10-16T07:24:39;6.03;;;2.20;;
71914;SDS011;60387;49.994;14.660;2022-10-16T07:27:12;6.00;;;1.70;;
71914;SDS011;60387;49.994;14.660;2022-10-16T07:29:45;5.07;;;1.80;;
71914;SDS011;60387;49.994;14.660;2022-10-16T07:32:19;5.50;;;1.97;;
71914;SDS011;60387;49.994;14.660;2022-10-16T07:34:52;5.53;;;2.13;;
71914;SDS011;60387;49.994;14.660;2022-10-16T07:37:26;5.70;;;1.88;;
71914;SDS011;60387;49.994;14.660;2022-10-16T07:39:59;5.23;;;2.00;;
71914;SDS011;60387;49.994;14.660;2022-10-16T07:42:32;4.73;;;1.87;;
71914;SDS011;60387;49.994;14.660;2022-10-16T07:45:06;5.57;;;1.77;;
71914;SDS011;60387;49.994;14.660;2022-10-16T07:47:39;5.27;;;1.53;;
71914;SDS011;60387;49.994;14.660;2022-10-16T07:50:12;5.60;;;1.80;;
71914;SDS011;60387;49.994;14.660;2022-10-16T07:52:46;4.90;;;1.57;;
71914;SDS011;60387;49.994;14.660;2022-10-16T07:55:19;4.83;;;1.70;;
71914;SDS011;60387;49.994;14.660;2022-10-16T07:57:52;4.63;;;1.57;;
71914;SDS011;60387;49.994;14.660;2022-10-16T08:00:25;3.90;;;1.50;;
71914;SDS011;60387;49.994;14.660;2022-10-16T08:02:59;5.10;;;1.30;;
71914;SDS011;60387;49.994;14.660;2022-10-16T08:05:32;5.07;;;1.48;;
71914;SDS011;60387;49.994;14.660;2022-10-16T08:08:06;5.57;;;1.73;;
71914;SDS011;60387;49.994;14.660;2022-10-16T08:10:39;4.37;;;1.73;;
71914;SDS011;60387;49.994;14.660;2022-10-16T08:13:13;4.65;;;1.50;;
71914;SDS011;60387;49.994;14.660;2022-10-16T08:15:46;5.43;;;1.60;;
71914;SDS011;60387;49.994;14.660;2022-10-16T08:18:20;5.87;;;1.83;;
71914;SDS011;60387;49.994;14.660;2022-10-16T08:20:57;5.07;;;1.60;;
71914;SDS011;60387;49.994;14.660;2022-10-16T08:23:32;4.28;;;1.55;;
71914;SDS011;60387;49.994;14.660;2022-10-16T08:26:06;5.35;;;1.25;;
71914;SDS011;60387;49.994;14.660;2022-10-16T08:28:41;4.28;;;1.35;;
71914;SDS011;60387;49.994;14.660;2022-10-16T08:31:15;4.50;;;1.10;;
71914;SDS011;60387;49.994;14.660;2022-10-16T08:33:49;4.05;;;1.00;;
71914;SDS011;60387;49.994;14.660;2022-10-16T08:36:22;4.30;;;1.40;;
71914;SDS011;60387;49.994;14.660;2022-10-16T08:38:55;4.20;;;1.10;;
71914;SDS011;60387;49.994;14.660;2022-10-16T08:47:24;5.55;;;1.13;;
71914;SDS011;60387;49.994;14.660;2022-10-16T08:50:08;3.35;;;1.27;;
71914;SDS011;60387;49.994;14.660;2022-10-16T08:52:44;3.87;;;1.10;;
71914;SDS011;60387;49.994;14.660;2022-10-16T08:58:29;4.15;;;1.02;;
71914;SDS011;60387;49.994;14.660;2022-10-16T09:01:04;2.30;;;0.67;;
71914;SDS011;60387;49.994;14.660;2022-10-16T09:06:50;2.97;;;0.80;;
71914;SDS011;60387;49.994;14.660;2022-10-16T09:09:32;3.80;;;0.95;;
71914;SDS011;60387;49.994;14.660;2022-10-16T09:15:38;3.13;;;0.60;;
71914;SDS011;60387;49.994;14.660;2022-10-16T09:20:53;3.97;;;0.90;;
71914;SDS011;60387;49.994;14.660;2022-10-16T09:23:34;6.93;;;1.42;;
71914;SDS011;60387;49.994;14.660;2022-10-16T09:26:09;7.70;;;1.45;;
71914;SDS011;60387;49.994;14.660;2022-10-16T09:28:46;5.18;;;1.13;;
71914;SDS011;60387;49.994;14.660;2022-10-16T09:31:19;3.67;;;1.00;;
71914;SDS011;60387;49.994;14.660;2022-10-16T09:33:57;4.03;;;0.93;;
71914;SDS011;60387;49.994;14.660;2022-10-16T09:36:39;5.32;;;0.77;;
71914;SDS011;60387;49.994;14.660;2022-10-16T09:39:15;4.65;;;0.82;;
71914;SDS011;60387;49.994;14.660;2022-10-16T09:41:48;2.57;;;0.80;;
71914;SDS011;60387;49.994;14.660;2022-10-16T09:47:12;2.97;;;0.80;;
71914;SDS011;60387;49.994;14.660;2022-10-16T09:52:36;2.63;;;0.80;;
71914;SDS011;60387;49.994;14.660;2022-10-16T09:55:18;3.10;;;0.80;;
71914;SDS011;60387;49.994;14.660;2022-10-16T09:57:52;3.22;;;0.70;;
71914;SDS011;60387;49.994;14.660;2022-10-16T10:00:26;1.50;;;0.60;;
71914;SDS011;60387;49.994;14.660;2022-10-16T10:03:00;1.60;;;0.60;;
71914;SDS011;60387;49.994;14.660;2022-10-16T10:05:33;2.22;;;0.80;;
71914;SDS011;60387;49.994;14.660;2022-10-16T10:08:06;2.73;;;0.63;;
71914;SDS011;60387;49.994;14.660;2022-10-16T10:10:51;3.73;;;0.63;;
71914;SDS011;60387;49.994;14.660;2022-10-16T10:13:24;2.97;;;0.85;;
71914;SDS011;60387;49.994;14.660;2022-10-16T10:15:57;2.00;;;0.70;;
71914;SDS011;60387;49.994;14.660;2022-10-16T10:18:31;2.43;;;0.70;;
71914;SDS011;60387;49.994;14.660;2022-10-16T10:21:04;1.90;;;0.60;;
71914;SDS011;60387;49.994;14.660;2022-10-16T10:23:37;2.13;;;0.70;;
71914;SDS011;60387;49.994;14.660;2022-10-16T10:26:12;2.70;;;0.80;;
71914;SDS011;60387;49.994;14.660;2022-10-16T10:29:02;2.45;;;0.80;;
71914;SDS011;60387;49.994;14.660;2022-10-16T10:31:51;3.53;;;0.77;;
71914;SDS011;60387;49.994;14.660;2022-10-16T10:47:18;1.63;;;0.50;;
71914;SDS011;60387;49.994;14.660;2022-10-16T10:50:04;2.85;;;0.70;;
71914;SDS011;60387;49.994;14.660;2022-10-16T10:59:00;1.70;;;0.70;;
71914;SDS011;60387;49.994;14.660;2022-10-16T11:04:34;2.25;;;0.63;;
71914;SDS011;60387;49.994;14.660;2022-10-16T11:07:23;2.80;;;0.60;;
71914;SDS011;60387;49.994;14.660;2022-10-16T11:10:12;1.63;;;0.50;;
71914;SDS011;60387;49.994;14.660;2022-10-16T11:15:57;2.80;;;0.93;;
71914;SDS011;60387;49.994;14.660;2022-10-16T11:18:43;1.63;;;0.60;;
71914;SDS011;60387;49.994;14.660;2022-10-16T11:21:23;2.47;;;0.70;;
71914;SDS011;60387;49.994;14.660;2022-10-16T11:23:59;4.32;;;1.67;;
71914;SDS011;60387;49.994;14.660;2022-10-16T11:26:39;7.15;;;3.22;;
71914;SDS011;60387;49.994;14.660;2022-10-16T11:29:20;8.80;;;3.50;;
71914;SDS011;60387;49.994;14.660;2022-10-16T11:32:07;2.60;;;0.90;;
71914;SDS011;60387;49.994;14.660;2022-10-16T11:34:57;2.42;;;0.98;;
71914;SDS011;60387;49.994;14.660;2022-10-16T11:37:39;9.25;;;3.55;;
71914;SDS011;60387;49.994;14.660;2022-10-16T11:40:19;6.80;;;2.50;;
71914;SDS011;60387;49.994;14.660;2022-10-16T11:42:59;9.13;;;3.40;;
71914;SDS011;60387;49.994;14.660;2022-10-16T11:45:42;5.17;;;1.67;;
71914;SDS011;60387;49.994;14.660;2022-10-16T11:57:14;5.10;;;1.42;;
71914;SDS011;60387;49.994;14.660;2022-10-16T11:59:57;2.67;;;0.70;;
71914;SDS011;60387;49.994;14.660;2022-10-16T12:02:48;3.80;;;1.30;;
71914;SDS011;60387;49.994;14.660;2022-10-16T12:08:49;3.83;;;1.00;;
71914;SDS011;60387;49.994;14.660;2022-10-16T12:11:31;2.55;;;0.70;;
71914;SDS011;60387;49.994;14.660;2022-10-16T12:16:59;2.92;;;0.90;;
71914;SDS011;60387;49.994;14.660;2022-10-16T12:19:34;2.08;;;0.60;;
71914;SDS011;60387;49.994;14.660;2022-10-16T12:22:15;1.67;;;0.60;;
71914;SDS011;60387;49.994;14.660;2022-10-16T12:24:51;2.05;;;0.90;;
71914;SDS011;60387;49.994;14.660;2022-10-16T12:30:03;2.85;;;0.80;;
71914;SDS011;60387;49.994;14.660;2022-10-16T12:32:39;3.08;;;0.93;;
71914;SDS011;60387;49.994;14.660;2022-10-16T12:35:20;1.60;;;0.50;;
71914;SDS011;60387;49.994;14.660;2022-10-16T12:38:12;2.58;;;0.80;;
71914;SDS011;60387;49.994;14.660;2022-10-16T12:41:00;2.75;;;0.70;;
71914;SDS011;60387;49.994;14.660;2022-10-16T12:43:42;2.63;;;0.83;;
71914;SDS011;60387;49.994;14.660;2022-10-16T12:51:47;1.58;;;0.60;;
71914;SDS011;60387;49.994;14.660;2022-10-16T12:54:30;1.77;;;0.67;;
71914;SDS011;60387;49.994;14.660;2022-10-16T13:00:14;4.20;;;0.70;;
71914;SDS011;60387;49.994;14.660;2022-10-16T13:23:00;1.90;;;0.75;;
71914;SDS011;60387;49.994;14.660;2022-10-16T13:28:32;2.00;;;0.80;;
71914;SDS011;60387;49.994;14.660;2022-10-16T13:31:40;2.72;;;0.80;;
71914;SDS011;60387;49.994;14.660;2022-10-16T13:34:10;2.53;;;0.70;;
71914;SDS011;60387;49.994;14.660;2022-10-16T13:36:48;2.22;;;0.80;;
71914;SDS011;60387;49.994;14.660;2022-10-16T13:39:24;3.60;;;0.97;;
71914;SDS011;60387;49.994;14.660;2022-10-16T13:42:15;3.47;;;0.82;;
71914;SDS011;60387;49.994;14.660;2022-10-16T13:44:56;4.18;;;0.82;;
71914;SDS011;60387;49.994;14.660;2022-10-16T13:47:29;2.60;;;0.80;;
71914;SDS011;60387;49.994;14.660;2022-10-16T13:50:04;2.20;;;0.70;;
71914;SDS011;60387;49.994;14.660;2022-10-16T13:52:39;2.95;;;0.70;;
71914;SDS011;60387;49.994;14.660;2022-10-16T13:55:13;4.10;;;0.97;;
71914;SDS011;60387;49.994;14.660;2022-10-16T13:57:48;2.35;;;0.90;;
71914;SDS011;60387;49.994;14.660;2022-10-16T14:00:23;2.13;;;0.83;;
71914;SDS011;60387;49.994;14.660;2022-10-16T14:03:00;3.85;;;1.20;;
71914;SDS011;60387;49.994;14.660;2022-10-16T14:05:36;3.45;;;1.10;;
71914;SDS011;60387;49.994;14.660;2022-10-16T14:08:15;3.83;;;1.07;;
71914;SDS011;60387;49.994;14.660;2022-10-16T14:10:53;3.90;;;0.90;;
71914;SDS011;60387;49.994;14.660;2022-10-16T14:13:29;3.97;;;1.05;;
71914;SDS011;60387;49.994;14.660;2022-10-16T14:16:08;4.95;;;1.38;;
71914;SDS011;60387;49.994;14.660;2022-10-16T14:18:44;3.93;;;1.20;;
71914;SDS011;60387;49.994;14.660;2022-10-16T14:21:23;5.80;;;1.33;;
71914;SDS011;60387;49.994;14.660;2022-10-16T14:23:56;5.23;;;1.37;;
71914;SDS011;60387;49.994;14.660;2022-10-16T14:26:30;5.07;;;1.27;;
71914;SDS011;60387;49.994;14.660;2022-10-16T14:29:15;4.82;;;1.30;;
71914;SDS011;60387;49.994;14.660;2022-10-16T14:31:55;4.53;;;1.17;;
71914;SDS011;60387;49.994;14.660;2022-10-16T14:34:36;4.55;;;1.30;;
71914;SDS011;60387;49.994;14.660;2022-10-16T14:39:50;4.63;;;1.00;;
71914;SDS011;60387;49.994;14.660;2022-10-16T14:42:24;3.78;;;1.10;;
71914;SDS011;60387;49.994;14.660;2022-10-16T14:44:58;8.30;;;1.30;;
71914;SDS011;60387;49.994;14.660;2022-10-16T14:47:31;4.23;;;1.40;;
71914;SDS011;60387;49.994;14.660;2022-10-16T14:50:07;5.57;;;1.80;;
71914;SDS011;60387;49.994;14.660;2022-10-16T14:52:41;3.70;;;1.40;;
71914;SDS011;60387;49.994;14.660;2022-10-16T14:55:15;5.77;;;1.77;;
71914;SDS011;60387;49.994;14.660;2022-10-16T14:57:48;5.93;;;1.70;;
71914;SDS011;60387;49.994;14.660;2022-10-16T15:00:22;4.43;;;1.43;;
71914;SDS011;60387;49.994;14.660;2022-10-16T15:02:57;4.10;;;1.52;;
71914;SDS011;60387;49.994;14.660;2022-10-16T15:05:30;5.20;;;1.23;;
71914;SDS011;60387;49.994;14.660;2022-10-16T15:08:03;4.10;;;1.50;;
71914;SDS011;60387;49.994;14.660;2022-10-16T15:10:41;6.30;;;2.03;;
71914;SDS011;60387;49.994;14.660;2022-10-16T15:13:16;5.85;;;2.20;;
71914;SDS011;60387;49.994;14.660;2022-10-16T15:15:49;7.07;;;2.50;;
71914;SDS011;60387;49.994;14.660;2022-10-16T15:18:23;5.37;;;1.83;;
71914;SDS011;60387;49.994;14.660;2022-10-16T15:20:56;5.60;;;2.13;;
71914;SDS011;60387;49.994;14.660;2022-10-16T15:23:29;4.93;;;1.40;;
71914;SDS011;60387;49.994;14.660;2022-10-16T15:26:02;5.63;;;2.00;;
71914;SDS011;60387;49.994;14.660;2022-10-16T15:28:36;5.57;;;1.38;;
71914;SDS011;60387;49.994;14.660;2022-10-16T15:31:09;8.97;;;1.53;;
71914;SDS011;60387;49.994;14.660;2022-10-16T15:33:43;4.13;;;1.20;;
71914;SDS011;60387;49.994;14.660;2022-10-16T15:36:16;4.87;;;1.20;;
71914;SDS011;60387;49.994;14.660;2022-10-16T15:38:49;4.40;;;1.30;;
71914;SDS011;60387;49.994;14.660;2022-10-16T15:41:22;3.40;;;1.20;;
71914;SDS011;60387;49.994;14.660;2022-10-16T15:43:56;4.87;;;1.20;;
71914;SDS011;60387;49.994;14.660;2022-10-16T15:46:29;5.45;;;1.27;;
71914;SDS011;60387;49.994;14.660;2022-10-16T15:49:03;4.20;;;1.50;;
71914;SDS011;60387;49.994;14.660;2022-10-16T15:51:40;5.20;;;1.50;;
71914;SDS011;60387;49.994;14.660;2022-10-16T15:54:14;7.25;;;2.42;;
71914;SDS011;60387;49.994;14.660;2022-10-16T15:56:47;6.73;;;1.97;;
71914;SDS011;60387;49.994;14.660;2022-10-16T15:59:20;4.93;;;1.53;;
71914;SDS011;60387;49.994;14.660;2022-10-16T16:01:54;5.87;;;1.27;;
71914;SDS011;60387;49.994;14.660;2022-10-16T16:04:29;5.13;;;1.43;;
71914;SDS011;60387;49.994;14.660;2022-10-16T16:07:03;4.47;;;1.45;;
71914;SDS011;60387;49.994;14.660;2022-10-16T16:09:36;7.67;;;3.33;;
71914;SDS011;60387;49.994;14.660;2022-10-16T16:12:09;2.90;;;1.00;;
71914;SDS011;60387;49.994;14.660;2022-10-16T16:14:42;3.63;;;1.33;;
71914;SDS011;60387;49.994;14.660;2022-10-16T16:17:16;4.80;;;1.63;;
71914;SDS011;60387;49.994;14.660;2022-10-16T16:19:50;4.87;;;1.40;;
71914;SDS011;60387;49.994;14.660;2022-10-16T16:22:23;2.83;;;1.00;;
71914;SDS011;60387;49.994;14.660;2022-10-16T16:24:56;3.17;;;0.90;;
71914;SDS011;60387;49.994;14.660;2022-10-16T16:27:30;2.87;;;0.97;;
71914;SDS011;60387;49.994;14.660;2022-10-16T16:30:03;3.30;;;0.80;;
71914;SDS011;60387;49.994;14.660;2022-10-16T16:32:38;4.22;;;1.10;;
71914;SDS011;60387;49.994;14.660;2022-10-16T16:35:11;4.50;;;1.47;;
71914;SDS011;60387;49.994;14.660;2022-10-16T16:37:46;4.63;;;1.30;;
71914;SDS011;60387;49.994;14.660;2022-10-16T16:40:20;3.63;;;0.90;;
71914;SDS011;60387;49.994;14.660;2022-10-16T16:42:53;4.83;;;1.23;;
71914;SDS011;60387;49.994;14.660;2022-10-16T16:45:26;4.77;;;1.50;;
71914;SDS011;60387;49.994;14.660;2022-10-16T16:48:00;5.47;;;1.77;;
71914;SDS011;60387;49.994;14.660;2022-10-16T16:50:36;4.93;;;1.53;;
71914;SDS011;60387;49.994;14.660;2022-10-16T16:53:09;9.60;;;2.80;;
71914;SDS011;60387;49.994;14.660;2022-10-16T16:55:43;10.60;;;4.13;;
71914;SDS011;60387;49.994;14.660;2022-10-16T16:58:16;6.67;;;2.37;;
71914;SDS011;60387;49.994;14.660;2022-10-16T17:00:49;7.07;;;2.40;;
71914;SDS011;60387;49.994;14.660;2022-10-16T17:03:23;7.50;;;2.93;;
71914;SDS011;60387;49.994;14.660;2022-10-16T17:06:00;5.73;;;2.27;;
71914;SDS011;60387;49.994;14.660;2022-10-16T17:08:36;7.18;;;2.78;;
71914;SDS011;60387;49.994;14.660;2022-10-16T17:11:17;8.48;;;3.90;;
71914;SDS011;60387;49.994;14.660;2022-10-16T17:13:55;13.47;;;5.20;;
71914;SDS011;60387;49.994;14.660;2022-10-16T17:16:32;9.30;;;3.97;;
71914;SDS011;60387;49.994;14.660;2022-10-16T17:19:07;15.88;;;6.60;;
71914;SDS011;60387;49.994;14.660;2022-10-16T17:21:43;11.32;;;5.22;;
71914;SDS011;60387;49.994;14.660;2022-10-16T17:24:17;8.67;;;3.57;;